Terminal Aerodrome Forecast
Issued by NWS

Home | Current Version | Previous Version | Text Only | Print | Product List | Glossary On
Versions: 1 2 3 4 5 6 7 8 9 10 11 12 13 14 15 16 17 18 19 20 21 22 23 24 25 26 27 28 29 30 31 32
000
FTUS41 KOKX 241931 AAB
TAFSWF
TAF AMD
KSWF 241931Z 2420/2524 12010KT P6SM SCT040 BKN250
     FM250400 11007KT P6SM SCT035 BKN250
     FM250900 08010KT 6SM -RA BR BKN025
     FM251200 08013KT 4SM -RA BR SCT007 BKN010
     FM251400 09014G20KT 2SM -RA BR OVC006
     FM251900 09011KT 3SM -RA BR OVC004
      AMD NOT SKED=

USA.gov is the U.S. government's official web portal to all federal, state and local government web resources and services.